This is the latest recevied weather packets stored in our database for station/object YO8RIX. If no packets are shown the sender has not sent any weather packets the latest 10 day(s).
| Time | Temp. | Humidity | Pressure | Rain* | Wind** | Luminosity | Snow |
|---|---|---|---|---|---|---|---|
| 1777771529 | 2.22° C | 85% | 1023.2 hPa | 0 mm | - | 0 W/m² | - |
| 1777766134 | 2.78° C | 83% | 1023.5 hPa | 0 mm | - | 0 W/m² | - |
| 1777764321 | 3.33° C | 83% | 1023.7 hPa | 0 mm | - | 0 W/m² | - |
| 1777763719 | 3.89° C | 82% | 1023.8 hPa | 0 mm | - | 0 W/m² | - |
| 1777758929 | 4.44° C | 77% | 1024.2 hPa | 0 mm | - | 0 W/m² | - |
| 1777751118 | 7.22° C | 65% | 1024.1 hPa | 0 mm | - | 0 W/m² | - |
| 1777743932 | 10.56° C | 56% | 1023.7 hPa | 0 mm | - | 0 W/m² | - |
| 1777743328 | 11.11° C | 55% | 1023.6 hPa | 0 mm | - | 1 W/m² | - |
| 1777742141 | 11.11° C | 54% | 1023.6 hPa | 0 mm | - | 7 W/m² | - |
| 1777736122 | 14.44° C | 45% | 1023.7 hPa | 0 mm | - | 62 W/m² | - |
| 1777733725 | 13.89° C | 45% | 1023.8 hPa | 0 mm | - | 78 W/m² | - |
| 1777730727 | 14.44° C | 45% | 1024.1 hPa | 0 mm | - | 159 W/m² | - |
| 1777724729 | 13.33° C | 46% | 1024.8 hPa | 0 mm | - | 213 W/m² | - |
| 1777724125 | 13.33° C | 47% | 1024.8 hPa | 0 mm | - | 181 W/m² | - |
| 1777719334 | 12.78° C | 50% | 1025.2 hPa | 0 mm | - | 240 W/m² | - |
| 1777718127 | 12.78° C | 49% | 1025.3 hPa | 0 mm | - | 236 W/m² | - |
| 1777716356 | 12.78° C | 48% | 1025.4 hPa | 0 mm | - | 342 W/m² | - |
| 1777715733 | 13.33° C | 49% | 1025.4 hPa | 0 mm | - | 548 W/m² | - |
| 1777715128 | 12.22° C | 50% | 1025.5 hPa | 0 mm | - | 643 W/m² | - |
| 1777710921 | 11.67° C | 60% | 1025.8 hPa | 0 mm | - | 177 W/m² | - |
| 1777705527 | 10° C | 67% | 1025.8 hPa | 0 mm | - | 383 W/m² | - |
| 1777701342 | 8.89° C | 77% | 1025.7 hPa | 0 mm | - | 339 W/m² | - |
| 1777689325 | 6.67° C | 79% | 1024.7 hPa | 0 mm | - | 0 W/m² | - |
| 1777679723 | 6.67° C | 78% | 1024.9 hPa | 0 mm | - | 0 W/m² | - |
| 1777679120 | 6.67° C | 78% | 1025.1 hPa | 0 mm | - | 0 W/m² | - |
* Rain latest hour (hover to see other rain measurements)
** Current wind speed in m/s (hover to see current wind gust speed)